Open Full Screen Window  High Contrast Mode
Wind Gusting 23 knots
12
November 21, 2017 1:58 PM EST
Weather Information
Wind Direction
  220 °
Wind Speed
  12 kt (14 mph)
Wind Gust
  23 kt (26 mph)
Altimeter
29.84 in
Visibility
10 SM
Temperature
11° C
52° F
Dewpoint
-05° C
23° F
Humidity
32%
1hr Rain Fall
00.00 in.
24hr Rain Fall
00.01 in.
Sky Condition
Clear
VFR

METAR KPOV 211858Z AUTO 22012G23KT 10SM CLR 11/M05 A2984 RMK AO2 T01051049

*Background is not an actual portrayal of the airport.